Luminous Kobe-2 — JJ3868 — position and weather

sailwx.info

Track history (hours):
 
Tides and Currents Weather Stations Pressure Air Temp Water Temp Dewpoint Dewpoint Depression Visibility Wind Speed Wind Dir Waves Ship Positions

Luminous Kobe-2

Last reported at 2014-Oct-30 18:22 UTC. Time now 2014-Oct-30 19:00 UTC.
Position N 34°41' E 135°11'.

Length 105 m; draft 4.5 m.

Type: Passenger vessel. MMSI: 431000469.

Date/timePositionNaut miles runAvg speedWind from/ knotsBaromVisibWave heightAir tempDewpointWater temp
2014-Oct-30 18:22N 34°41' E 135°11'0 0.0
2014-Oct-30 17:28N 34°41' E 135°11'0 0.0
2014-Oct-30 16:28N 34°41' E 135°11'0 0.0
2014-Oct-30 15:22N 34°41' E 135°11'0 0.0
2014-Oct-30 14:28N 34°41' E 135°11'0 0.0
2014-Oct-30 13:28N 34°41' E 135°11'0 0.0
2014-Oct-30 12:28N 34°41' E 135°11'6 6.7
2014-Oct-30 11:33N 34°36' E 135°07'1 0.7
2014-Oct-30 10:33N 34°37' E 135°07'6 5.4
2014-Oct-30 09:31N 34°41' E 135°11'5 4.8
2014-Oct-30 08:33N 34°38' E 135°07'5 4.7
2014-Oct-30 07:33N 34°41' E 135°11'0 0.0
2014-Oct-30 06:29N 34°41' E 135°11'0 0.0
2014-Oct-30 05:23N 34°41' E 135°11'3 3.2
2014-Oct-30 04:33N 34°38' E 135°11'3 2.7
2014-Oct-30 03:33N 34°37' E 135°14'4 4.1
2014-Oct-30 02:33N 34°41' E 135°11'0 0.0
2014-Oct-30 01:30N 34°41' E 135°11'0 0.0
2014-Oct-30 00:30N 34°41' E 135°11'0 0.0
2014-Oct-29 23:30N 34°41' E 135°11'0 0.0
2014-Oct-29 22:30N 34°41' E 135°11'0 0.0
2014-Oct-29 21:24N 34°41' E 135°11'0 0.0
2014-Oct-29 20:30N 34°41' E 135°11'0 0.0
2014-Oct-29 19:30N 34°41' E 135°11'0 0.0
2014-Oct-29 18:30N 34°41' E 135°11'0 0.0
2014-Oct-29 17:30N 34°41' E 135°11'0 0.0
2014-Oct-29 16:30N 34°41' E 135°11'0 0.0
2014-Oct-29 15:30N 34°41' E 135°11'0 0.0
2014-Oct-29 14:30N 34°41' E 135°11'0 0.0
2014-Oct-29 13:24N 34°41' E 135°11'0 0.0
2014-Oct-29 12:30N 34°41' E 135°11'5 5.6
2014-Oct-29 11:33N 34°36' E 135°08'1 1.2
2014-Oct-29 10:33N 34°37' E 135°07'6 5.7
2014-Oct-29 09:33N 34°41' E 135°11'5 4.7
2014-Oct-29 08:33N 34°38' E 135°07'5 3.8
2014-Oct-29 07:20N 34°41' E 135°11'0 0.0
2014-Oct-29 06:32N 34°41' E 135°11'0 0.0
2014-Oct-29 05:32N 34°41' E 135°11'3 2.7
2014-Oct-29 04:33N 34°38' E 135°11'3 2.7
2014-Oct-29 03:33N 34°37' E 135°14'5 4.6
2014-Oct-29 02:32N 34°41' E 135°11'0 0.0
2014-Oct-29 01:26N 34°41' E 135°11'0 0.0
2014-Oct-29 00:32N 34°41' E 135°11'0 0.0
2014-Oct-28 23:32N 34°41' E 135°11'0 0.0
2014-Oct-28 22:32N 34°41' E 135°11'0 0.0
2014-Oct-28 21:20N 34°41' E 135°11'0 0.0
2014-Oct-28 20:32N 34°41' E 135°11'0 0.0
2014-Oct-28 19:32N 34°41' E 135°11'0 0.0
2014-Oct-28 18:32N 34°41' E 135°11'0 0.0
2014-Oct-28 17:32N 34°41' E 135°11'0 0.0
2014-Oct-28 16:32N 34°41' E 135°11'0 0.0
2014-Oct-28 15:32N 34°41' E 135°11'0 0.0
2014-Oct-28 14:32N 34°41' E 135°11'0 0.0
2014-Oct-28 13:20N 34°41' E 135°11'0 0.0
2014-Oct-28 12:32N 34°41' E 135°11'6 6.4
2014-Oct-28 11:34N 34°36' E 135°06'2 1.6
2014-Oct-28 10:34N 34°37' E 135°08'5 4.6
2014-Oct-28 09:33N 34°41' E 135°11'3 2.8
2014-Oct-28 08:33N 34°38' E 135°10'3 2.8
2014-Oct-28 07:33N 34°41' E 135°11'0 0.0
2014-Oct-28 05:28N 34°41' E 135°11'3 3.1
2014-Oct-28 04:33N 34°38' E 135°11'2 2.3
2014-Oct-28 03:33N 34°37' E 135°14'4 4.1
2014-Oct-28 02:32N 34°41' E 135°11'0 0.0
2014-Oct-28 01:28N 34°41' E 135°11'0 0.0
2014-Oct-28 00:28N 34°41' E 135°11'0 0.0
2014-Oct-27 23:28N 34°41' E 135°11'0 0.0
2014-Oct-27 22:22N 34°41' E 135°11'0 0.0
2014-Oct-27 21:22N 34°41' E 135°11'0 0.0
2014-Oct-27 20:16N 34°41' E 135°11'0 0.0
2014-Oct-27 19:28N 34°41' E 135°11'0 0.0
2014-Oct-27 18:28N 34°41' E 135°11'0 0.0
2014-Oct-27 17:28N 34°41' E 135°11'0 0.0
2014-Oct-27 16:16N 34°41' E 135°11'0 0.0
2014-Oct-27 15:28N 34°41' E 135°11'0 0.0
2014-Oct-27 14:28N 34°41' E 135°11'0 0.0
2014-Oct-27 13:28N 34°41' E 135°11'0 0.0
2014-Oct-27 12:28N 34°41' E 135°11'7 7.3
2014-Oct-27 11:33N 34°35' E 135°07'2 1.7
2014-Oct-27 10:33N 34°37' E 135°07'5 5.1
2014-Oct-27 09:33N 34°41' E 135°11'5 5.0
2014-Oct-27 08:34N 34°37' E 135°07'5 4.9
2014-Oct-27 07:33N 34°41' E 135°11'0 0.0
2014-Oct-27 06:33N 34°41' E 135°11'0 0.0
2014-Oct-27 05:33N 34°41' E 135°11'3 2.7
2014-Oct-27 04:33N 34°38' E 135°11'3 2.7
2014-Oct-27 03:33N 34°37' E 135°14'4 3.6
2014-Oct-27 02:26N 34°41' E 135°11'0 0.0
2014-Oct-27 01:26N 34°41' E 135°11'0 0.0
2014-Oct-27 00:32N 34°41' E 135°11'0 0.0
2014-Oct-26 23:32N 34°41' E 135°11'0 0.0
2014-Oct-26 22:32N 34°41' E 135°11'0 0.0
2014-Oct-26 21:32N 34°41' E 135°11'0 0.0
2014-Oct-26 20:32N 34°41' E 135°11'0 0.0
2014-Oct-26 19:32N 34°41' E 135°11'0 0.0
2014-Oct-26 18:20N 34°41' E 135°11'0 0.0
2014-Oct-26 17:26N 34°41' E 135°11'0 0.0
2014-Oct-26 16:32N 34°41' E 135°11'0 0.0
2014-Oct-26 15:20N 34°41' E 135°11'0 0.0
2014-Oct-26 14:32N 34°41' E 135°11'0 0.0
2014-Oct-26 13:32N 34°41' E 135°11'0 0.0
2014-Oct-26 12:32N 34°41' E 135°11'7 6.7
2014-Oct-26 11:33N 34°36' E 135°06'1 1.4
2014-Oct-26 10:33N 34°37' E 135°07'5 4.7
2014-Oct-26 09:28N 34°41' E 135°11'6 6.9
2014-Oct-26 08:33N 34°35' E 135°08'2 1.7
2014-Oct-26 07:33N 34°37' E 135°06'6 5.6
2014-Oct-26 06:33N 34°41' E 135°11'0 0.0
2014-Oct-26 05:25N 34°41' E 135°11'2 2.7
2014-Oct-26 04:33N 34°39' E 135°11'2 2.4
2014-Oct-26 03:33N 34°37' E 135°13'4 4.1
2014-Oct-26 02:33N 34°41' E 135°11'0 0.0
2014-Oct-26 01:31N 34°41' E 135°11'0 0.0
2014-Oct-26 00:19N 34°41' E 135°11'0 0.0
2014-Oct-25 23:31N 34°41' E 135°11'0 0.0
2014-Oct-25 22:31N 34°41' E 135°11'0 0.0
2014-Oct-25 21:31N 34°41' E 135°11'0 0.0
2014-Oct-25 20:31N 34°41' E 135°11'0 0.0
2014-Oct-25 19:31N 34°41' E 135°11'0 0.0
2014-Oct-25 18:31N 34°41' E 135°11'0 0.0
2014-Oct-25 17:31N 34°41' E 135°11'0 0.0
2014-Oct-25 16:25N 34°41' E 135°11'0 0.0
2014-Oct-25 15:25N 34°41' E 135°11'0 0.0
2014-Oct-25 14:25N 34°41' E 135°11'0 0.0
2014-Oct-25 13:25N 34°41' E 135°11'0 0.0
2014-Oct-25 12:31N 34°41' E 135°11'7 7.7
2014-Oct-25 11:33N 34°35' E 135°06'2 1.7
2014-Oct-25 10:33N 34°36' E 135°07'6 5.7
2014-Oct-25 09:33N 34°41' E 135°11'3 2.6
2014-Oct-25 08:33N 34°38' E 135°11'3 2.8
2014-Oct-25 07:33N 34°37' E 135°14'4 2.9
2014-Oct-25 06:10N 34°41' E 135°11'0 0.0
2014-Oct-25 05:28N 34°41' E 135°11'3 2.8
2014-Oct-25 04:34N 34°38' E 135°11'2 2.4
2014-Oct-25 03:33N 34°37' E 135°14'4 3.8
2014-Oct-25 02:30N 34°41' E 135°11'0 0.0
2014-Oct-25 01:30N 34°41' E 135°11'0 0.0
2014-Oct-25 00:30N 34°41' E 135°11'0 0.0
2014-Oct-24 23:30N 34°41' E 135°11'0 0.0
2014-Oct-24 22:30N 34°41' E 135°11'0 0.0
2014-Oct-24 21:24N 34°41' E 135°11'0 0.0
2014-Oct-24 20:30N 34°41' E 135°11'0 0.0
2014-Oct-24 19:30N 34°41' E 135°11'0 0.0
2014-Oct-24 18:30N 34°41' E 135°11'0 0.0
2014-Oct-24 17:30N 34°41' E 135°11'0 0.0
2014-Oct-24 16:30N 34°41' E 135°11'0 0.0
2014-Oct-24 15:30N 34°41' E 135°11'0 0.0
2014-Oct-24 14:30N 34°41' E 135°11'0 0.0
2014-Oct-24 13:30N 34°41' E 135°11'0 0.0
2014-Oct-24 12:30N 34°41' E 135°11'6 6.6
2014-Oct-24 11:33N 34°36' E 135°06'0 0.4
2014-Oct-24 10:33N 34°37' E 135°06'6 5.8
2014-Oct-24 09:33N 34°41' E 135°11'5 4.7
2014-Oct-24 08:33N 34°37' E 135°08'5 4.7
2014-Oct-24 07:33N 34°41' E 135°11'0 0.0
2014-Oct-24 06:29N 34°41' E 135°11'0 0.0
2014-Oct-24 05:29N 34°41' E 135°11'3 3.1
2014-Oct-24 04:32N 34°38' E 135°11'3 2.9
2014-Oct-24 03:33N 34°38' E 135°14'4 4.0
2014-Oct-24 02:33N 34°41' E 135°11'0 0.0
2014-Oct-24 01:31N 34°41' E 135°11'0 0.0
2014-Oct-24 00:31N 34°41' E 135°11'0 0.0
2014-Oct-23 23:31N 34°41' E 135°11'0 0.0
2014-Oct-23 22:25N 34°41' E 135°11'0 0.0
2014-Oct-23 21:31N 34°41' E 135°11'0 0.0
2014-Oct-23 20:31N 34°41' E 135°11'0 0.0
2014-Oct-23 19:31N 34°41' E 135°11'0 0.0
2014-Oct-23 18:31N 34°41' E 135°11'0 0.0
2014-Oct-23 17:31N 34°41' E 135°11'0 0.0
2014-Oct-23 16:31N 34°41' E 135°11'0 0.0
2014-Oct-23 15:25N 34°41' E 135°11'0 0.0
2014-Oct-23 14:31N 34°41' E 135°11'0 0.0
2014-Oct-23 13:31N 34°41' E 135°11'0 0.0
2014-Oct-23 12:31N 34°41' E 135°11'6 5.9
2014-Oct-23 11:33N 34°36' E 135°07'1 0.8
2014-Oct-23 10:33N 34°37' E 135°06'6 5.7
2014-Oct-23 09:33N 34°41' E 135°11'4 4.3
2014-Oct-23 08:33N 34°38' E 135°08'4 4.2
2014-Oct-23 07:32N 34°41' E 135°11'0 0.0
2014-Oct-23 06:32N 34°41' E 135°11'0 0.0
2014-Oct-23 05:26N 34°41' E 135°11'3 3.1
2014-Oct-23 04:33N 34°38' E 135°11'3 2.7
2014-Oct-23 03:33N 34°37' E 135°14'4 4.4
2014-Oct-23 02:32N 34°41' E 135°11'0 0.0
2014-Oct-23 01:32N 34°41' E 135°11'0 0.0
2014-Oct-23 00:32N 34°41' E 135°11'0 0.0
2014-Oct-22 23:32N 34°41' E 135°11'0 0.0
2014-Oct-22 22:32N 34°41' E 135°11'0 0.0
2014-Oct-22 21:26N 34°41' E 135°11'0 0.0
2014-Oct-22 20:32N 34°41' E 135°11'0 0.0
2014-Oct-22 19:32N 34°41' E 135°11'0 0.0
2014-Oct-22 18:20N 34°41' E 135°11'0 0.0
2014-Oct-22 17:26N 34°41' E 135°11'0 0.0
2014-Oct-22 16:32N 34°41' E 135°11'0 0.0
2014-Oct-22 15:20N 34°41' E 135°11'0 0.0
2014-Oct-22 14:32N 34°41' E 135°11'0 0.0
2014-Oct-22 13:32N 34°41' E 135°11'0 0.0
2014-Oct-22 12:32N 34°41' E 135°11'6 5.9
2014-Oct-22 11:33N 34°36' E 135°07'1 0.6
2014-Oct-22 10:33N 34°36' E 135°07'6 4.9
2014-Oct-22 09:19N 34°41' E 135°11'5 6.3
2014-Oct-22 08:33N 34°38' E 135°07'5 4.8
2014-Oct-22 07:33N 34°41' E 135°11'0 0.0
2014-Oct-22 06:32N 34°41' E 135°11'0 0.0
2014-Oct-22 05:32N 34°41' E 135°11'3 2.7
2014-Oct-22 04:33N 34°38' E 135°11'3 2.6
2014-Oct-22 03:33N 34°37' E 135°14'4 4.1
2014-Oct-22 02:33N 34°41' E 135°11'0 0.0
2014-Oct-22 01:31N 34°41' E 135°11'0 0.0
2014-Oct-22 00:31N 34°41' E 135°11'0 0.0
2014-Oct-21 23:31N 34°41' E 135°11'0 0.0
2014-Oct-21 22:31N 34°41' E 135°11'0 0.0
2014-Oct-21 21:31N 34°41' E 135°11'0 0.0
2014-Oct-21 20:31N 34°41' E 135°11'0 0.0
2014-Oct-21 19:31N 34°41' E 135°11'0 0.0
2014-Oct-21 18:31N 34°41' E 135°11'0 0.0
2014-Oct-21 17:25N 34°41' E 135°11'0 0.0
2014-Oct-21 16:31N 34°41' E 135°11'0 0.0
2014-Oct-21 15:31N 34°41' E 135°11'0 0.0
2014-Oct-21 14:31N 34°41' E 135°11'0 0.0
2014-Oct-21 13:31N 34°41' E 135°11'0 0.0
2014-Oct-21 12:31N 34°41' E 135°11'6 6.1
2014-Oct-21 11:33N 34°36' E 135°07'0 0.4
2014-Oct-21 10:33N 34°37' E 135°07'6 5.6
2014-Oct-21 09:33N 34°41' E 135°11'5 4.8
2014-Oct-21 08:33N 34°37' E 135°07'5 4.6
2014-Oct-21 07:30N 34°41' E 135°11'0 0.0
2014-Oct-21 06:30N 34°41' E 135°11'0 0.0
2014-Oct-21 05:30N 34°41' E 135°11'3 2.8
2014-Oct-21 04:33N 34°38' E 135°11'3 2.6
2014-Oct-21 03:33N 34°37' E 135°14'4 4.2
2014-Oct-21 02:33N 34°41' E 135°11'0 0.0
2014-Oct-21 01:33N 34°41' E 135°11'0 0.0
2014-Oct-21 00:33N 34°41' E 135°11'0 0.0
2014-Oct-20 23:33N 34°41' E 135°11'0 0.0
2014-Oct-20 22:33N 34°41' E 135°11'0 0.0
2014-Oct-20 21:33N 34°41' E 135°11'0 0.0
2014-Oct-20 20:33N 34°41' E 135°11'0 0.0
2014-Oct-20 19:27N 34°41' E 135°11'0 0.0
2014-Oct-20 18:33N 34°41' E 135°11'  
Track history (hours):
 
Tides and Currents Weather Stations Pressure Air Temp Water Temp Dewpoint Dewpoint Depression Visibility Wind Speed Wind Dir Waves Ship Positions

Luminous Kobe-2

Last reported at 2014-Oct-30 18:22 UTC. Time now 2014-Oct-30 19:00 UTC.
Position N 34°41' E 135°11'.

Length 105 m; draft 4.5 m.

Type: Passenger vessel. MMSI: 431000469.

Date/timePositionNaut miles runAvg speedWind from/ knotsBaromVisibWave heightAir tempDewpointWater temp
2014-Oct-30 18:22N 34°41' E 135°11'0 0.0
2014-Oct-30 17:28N 34°41' E 135°11'0 0.0
2014-Oct-30 16:28N 34°41' E 135°11'0 0.0
2014-Oct-30 15:22N 34°41' E 135°11'0 0.0
2014-Oct-30 14:28N 34°41' E 135°11'0 0.0
2014-Oct-30 13:28N 34°41' E 135°11'0 0.0
2014-Oct-30 12:28N 34°41' E 135°11'6 6.7
2014-Oct-30 11:33N 34°36' E 135°07'1 0.7
2014-Oct-30 10:33N 34°37' E 135°07'6 5.4
2014-Oct-30 09:31N 34°41' E 135°11'5 4.8
2014-Oct-30 08:33N 34°38' E 135°07'5 4.7
2014-Oct-30 07:33N 34°41' E 135°11'0 0.0
2014-Oct-30 06:29N 34°41' E 135°11'0 0.0
2014-Oct-30 05:23N 34°41' E 135°11'3 3.2
2014-Oct-30 04:33N 34°38' E 135°11'3 2.7
2014-Oct-30 03:33N 34°37' E 135°14'4 4.1
2014-Oct-30 02:33N 34°41' E 135°11'0 0.0
2014-Oct-30 01:30N 34°41' E 135°11'0 0.0
2014-Oct-30 00:30N 34°41' E 135°11'0 0.0
2014-Oct-29 23:30N 34°41' E 135°11'0 0.0
2014-Oct-29 22:30N 34°41' E 135°11'0 0.0
2014-Oct-29 21:24N 34°41' E 135°11'0 0.0
2014-Oct-29 20:30N 34°41' E 135°11'0 0.0
2014-Oct-29 19:30N 34°41' E 135°11'0 0.0
2014-Oct-29 18:30N 34°41' E 135°11'0 0.0
2014-Oct-29 17:30N 34°41' E 135°11'0 0.0
2014-Oct-29 16:30N 34°41' E 135°11'0 0.0
2014-Oct-29 15:30N 34°41' E 135°11'0 0.0
2014-Oct-29 14:30N 34°41' E 135°11'0 0.0
2014-Oct-29 13:24N 34°41' E 135°11'0 0.0
2014-Oct-29 12:30N 34°41' E 135°11'5 5.6
2014-Oct-29 11:33N 34°36' E 135°08'1 1.2
2014-Oct-29 10:33N 34°37' E 135°07'6 5.7
2014-Oct-29 09:33N 34°41' E 135°11'5 4.7
2014-Oct-29 08:33N 34°38' E 135°07'5 3.8
2014-Oct-29 07:20N 34°41' E 135°11'0 0.0
2014-Oct-29 06:32N 34°41' E 135°11'0 0.0
2014-Oct-29 05:32N 34°41' E 135°11'3 2.7
2014-Oct-29 04:33N 34°38' E 135°11'3 2.7
2014-Oct-29 03:33N 34°37' E 135°14'5 4.6
2014-Oct-29 02:32N 34°41' E 135°11'0 0.0
2014-Oct-29 01:26N 34°41' E 135°11'0 0.0
2014-Oct-29 00:32N 34°41' E 135°11'0 0.0
2014-Oct-28 23:32N 34°41' E 135°11'0 0.0
2014-Oct-28 22:32N 34°41' E 135°11'0 0.0
2014-Oct-28 21:20N 34°41' E 135°11'0 0.0
2014-Oct-28 20:32N 34°41' E 135°11'0 0.0
2014-Oct-28 19:32N 34°41' E 135°11'0 0.0
2014-Oct-28 18:32N 34°41' E 135°11'0 0.0
2014-Oct-28 17:32N 34°41' E 135°11'0 0.0
2014-Oct-28 16:32N 34°41' E 135°11'0 0.0
2014-Oct-28 15:32N 34°41' E 135°11'0 0.0
2014-Oct-28 14:32N 34°41' E 135°11'0 0.0
2014-Oct-28 13:20N 34°41' E 135°11'0 0.0
2014-Oct-28 12:32N 34°41' E 135°11'6 6.4
2014-Oct-28 11:34N 34°36' E 135°06'2 1.6
2014-Oct-28 10:34N 34°37' E 135°08'5 4.6
2014-Oct-28 09:33N 34°41' E 135°11'3 2.8
2014-Oct-28 08:33N 34°38' E 135°10'3 2.8
2014-Oct-28 07:33N 34°41' E 135°11'0 0.0
2014-Oct-28 05:28N 34°41' E 135°11'3 3.1
2014-Oct-28 04:33N 34°38' E 135°11'2 2.3
2014-Oct-28 03:33N 34°37' E 135°14'4 4.1
2014-Oct-28 02:32N 34°41' E 135°11'0 0.0
2014-Oct-28 01:28N 34°41' E 135°11'0 0.0
2014-Oct-28 00:28N 34°41' E 135°11'0 0.0
2014-Oct-27 23:28N 34°41' E 135°11'0 0.0
2014-Oct-27 22:22N 34°41' E 135°11'0 0.0
2014-Oct-27 21:22N 34°41' E 135°11'0 0.0
2014-Oct-27 20:16N 34°41' E 135°11'0 0.0
2014-Oct-27 19:28N 34°41' E 135°11'0 0.0
2014-Oct-27 18:28N 34°41' E 135°11'0 0.0
2014-Oct-27 17:28N 34°41' E 135°11'0 0.0
2014-Oct-27 16:16N 34°41' E 135°11'0 0.0
2014-Oct-27 15:28N 34°41' E 135°11'0 0.0
2014-Oct-27 14:28N 34°41' E 135°11'0 0.0
2014-Oct-27 13:28N 34°41' E 135°11'0 0.0
2014-Oct-27 12:28N 34°41' E 135°11'7 7.3
2014-Oct-27 11:33N 34°35' E 135°07'2 1.7
2014-Oct-27 10:33N 34°37' E 135°07'5 5.1
2014-Oct-27 09:33N 34°41' E 135°11'5 5.0
2014-Oct-27 08:34N 34°37' E 135°07'5 4.9
2014-Oct-27 07:33N 34°41' E 135°11'0 0.0
2014-Oct-27 06:33N 34°41' E 135°11'0 0.0
2014-Oct-27 05:33N 34°41' E 135°11'3 2.7
2014-Oct-27 04:33N 34°38' E 135°11'3 2.7
2014-Oct-27 03:33N 34°37' E 135°14'4 3.6
2014-Oct-27 02:26N 34°41' E 135°11'0 0.0
2014-Oct-27 01:26N 34°41' E 135°11'0 0.0
2014-Oct-27 00:32N 34°41' E 135°11'0 0.0
2014-Oct-26 23:32N 34°41' E 135°11'0 0.0
2014-Oct-26 22:32N 34°41' E 135°11'0 0.0
2014-Oct-26 21:32N 34°41' E 135°11'0 0.0
2014-Oct-26 20:32N 34°41' E 135°11'0 0.0
2014-Oct-26 19:32N 34°41' E 135°11'0 0.0
2014-Oct-26 18:20N 34°41' E 135°11'0 0.0
2014-Oct-26 17:26N 34°41' E 135°11'0 0.0
2014-Oct-26 16:32N 34°41' E 135°11'0 0.0
2014-Oct-26 15:20N 34°41' E 135°11'0 0.0
2014-Oct-26 14:32N 34°41' E 135°11'0 0.0
2014-Oct-26 13:32N 34°41' E 135°11'0 0.0
2014-Oct-26 12:32N 34°41' E 135°11'7 6.7
2014-Oct-26 11:33N 34°36' E 135°06'1 1.4
2014-Oct-26 10:33N 34°37' E 135°07'5 4.7
2014-Oct-26 09:28N 34°41' E 135°11'6 6.9
2014-Oct-26 08:33N 34°35' E 135°08'2 1.7
2014-Oct-26 07:33N 34°37' E 135°06'6 5.6
2014-Oct-26 06:33N 34°41' E 135°11'0 0.0
2014-Oct-26 05:25N 34°41' E 135°11'2 2.7
2014-Oct-26 04:33N 34°39' E 135°11'2 2.4
2014-Oct-26 03:33N 34°37' E 135°13'4 4.1
2014-Oct-26 02:33N 34°41' E 135°11'0 0.0
2014-Oct-26 01:31N 34°41' E 135°11'0 0.0
2014-Oct-26 00:19N 34°41' E 135°11'0 0.0
2014-Oct-25 23:31N 34°41' E 135°11'0 0.0
2014-Oct-25 22:31N 34°41' E 135°11'0 0.0
2014-Oct-25 21:31N 34°41' E 135°11'0 0.0
2014-Oct-25 20:31N 34°41' E 135°11'0 0.0
2014-Oct-25 19:31N 34°41' E 135°11'0 0.0
2014-Oct-25 18:31N 34°41' E 135°11'0 0.0
2014-Oct-25 17:31N 34°41' E 135°11'0 0.0
2014-Oct-25 16:25N 34°41' E 135°11'0 0.0
2014-Oct-25 15:25N 34°41' E 135°11'0 0.0
2014-Oct-25 14:25N 34°41' E 135°11'0 0.0
2014-Oct-25 13:25N 34°41' E 135°11'0 0.0
2014-Oct-25 12:31N 34°41' E 135°11'7 7.7
2014-Oct-25 11:33N 34°35' E 135°06'2 1.7
2014-Oct-25 10:33N 34°36' E 135°07'6 5.7
2014-Oct-25 09:33N 34°41' E 135°11'3 2.6
2014-Oct-25 08:33N 34°38' E 135°11'3 2.8
2014-Oct-25 07:33N 34°37' E 135°14'4 2.9
2014-Oct-25 06:10N 34°41' E 135°11'0 0.0
2014-Oct-25 05:28N 34°41' E 135°11'3 2.8
2014-Oct-25 04:34N 34°38' E 135°11'2 2.4
2014-Oct-25 03:33N 34°37' E 135°14'4 3.8
2014-Oct-25 02:30N 34°41' E 135°11'0 0.0
2014-Oct-25 01:30N 34°41' E 135°11'0 0.0
2014-Oct-25 00:30N 34°41' E 135°11'0 0.0
2014-Oct-24 23:30N 34°41' E 135°11'0 0.0
2014-Oct-24 22:30N 34°41' E 135°11'0 0.0
2014-Oct-24 21:24N 34°41' E 135°11'0 0.0
2014-Oct-24 20:30N 34°41' E 135°11'0 0.0
2014-Oct-24 19:30N 34°41' E 135°11'0 0.0
2014-Oct-24 18:30N 34°41' E 135°11'0 0.0
2014-Oct-24 17:30N 34°41' E 135°11'0 0.0
2014-Oct-24 16:30N 34°41' E 135°11'0 0.0
2014-Oct-24 15:30N 34°41' E 135°11'0 0.0
2014-Oct-24 14:30N 34°41' E 135°11'0 0.0
2014-Oct-24 13:30N 34°41' E 135°11'0 0.0
2014-Oct-24 12:30N 34°41' E 135°11'6 6.6
2014-Oct-24 11:33N 34°36' E 135°06'0 0.4
2014-Oct-24 10:33N 34°37' E 135°06'6 5.8
2014-Oct-24 09:33N 34°41' E 135°11'5 4.7
2014-Oct-24 08:33N 34°37' E 135°08'5 4.7
2014-Oct-24 07:33N 34°41' E 135°11'0 0.0
2014-Oct-24 06:29N 34°41' E 135°11'0 0.0
2014-Oct-24 05:29N 34°41' E 135°11'3 3.1
2014-Oct-24 04:32N 34°38' E 135°11'3 2.9
2014-Oct-24 03:33N 34°38' E 135°14'4 4.0
2014-Oct-24 02:33N 34°41' E 135°11'0 0.0
2014-Oct-24 01:31N 34°41' E 135°11'0 0.0
2014-Oct-24 00:31N 34°41' E 135°11'0 0.0
2014-Oct-23 23:31N 34°41' E 135°11'0 0.0
2014-Oct-23 22:25N 34°41' E 135°11'0 0.0
2014-Oct-23 21:31N 34°41' E 135°11'0 0.0
2014-Oct-23 20:31N 34°41' E 135°11'0 0.0
2014-Oct-23 19:31N 34°41' E 135°11'0 0.0
2014-Oct-23 18:31N 34°41' E 135°11'0 0.0
2014-Oct-23 17:31N 34°41' E 135°11'0 0.0
2014-Oct-23 16:31N 34°41' E 135°11'0 0.0
2014-Oct-23 15:25N 34°41' E 135°11'0 0.0
2014-Oct-23 14:31N 34°41' E 135°11'0 0.0
2014-Oct-23 13:31N 34°41' E 135°11'0 0.0
2014-Oct-23 12:31N 34°41' E 135°11'6 5.9
2014-Oct-23 11:33N 34°36' E 135°07'1 0.8
2014-Oct-23 10:33N 34°37' E 135°06'6 5.7
2014-Oct-23 09:33N 34°41' E 135°11'4 4.3
2014-Oct-23 08:33N 34°38' E 135°08'4 4.2
2014-Oct-23 07:32N 34°41' E 135°11'0 0.0
2014-Oct-23 06:32N 34°41' E 135°11'0 0.0
2014-Oct-23 05:26N 34°41' E 135°11'3 3.1
2014-Oct-23 04:33N 34°38' E 135°11'3 2.7
2014-Oct-23 03:33N 34°37' E 135°14'4 4.4
2014-Oct-23 02:32N 34°41' E 135°11'0 0.0
2014-Oct-23 01:32N 34°41' E 135°11'0 0.0
2014-Oct-23 00:32N 34°41' E 135°11'0 0.0
2014-Oct-22 23:32N 34°41' E 135°11'0 0.0
2014-Oct-22 22:32N 34°41' E 135°11'0 0.0
2014-Oct-22 21:26N 34°41' E 135°11'0 0.0
2014-Oct-22 20:32N 34°41' E 135°11'0 0.0
2014-Oct-22 19:32N 34°41' E 135°11'0 0.0
2014-Oct-22 18:20N 34°41' E 135°11'0 0.0
2014-Oct-22 17:26N 34°41' E 135°11'0 0.0
2014-Oct-22 16:32N 34°41' E 135°11'0 0.0
2014-Oct-22 15:20N 34°41' E 135°11'0 0.0
2014-Oct-22 14:32N 34°41' E 135°11'0 0.0
2014-Oct-22 13:32N 34°41' E 135°11'0 0.0
2014-Oct-22 12:32N 34°41' E 135°11'6 5.9
2014-Oct-22 11:33N 34°36' E 135°07'1 0.6
2014-Oct-22 10:33N 34°36' E 135°07'6 4.9
2014-Oct-22 09:19N 34°41' E 135°11'5 6.3
2014-Oct-22 08:33N 34°38' E 135°07'5 4.8
2014-Oct-22 07:33N 34°41' E 135°11'0 0.0
2014-Oct-22 06:32N 34°41' E 135°11'0 0.0
2014-Oct-22 05:32N 34°41' E 135°11'3 2.7
2014-Oct-22 04:33N 34°38' E 135°11'3 2.6
2014-Oct-22 03:33N 34°37' E 135°14'4 4.1
2014-Oct-22 02:33N 34°41' E 135°11'0 0.0
2014-Oct-22 01:31N 34°41' E 135°11'0 0.0
2014-Oct-22 00:31N 34°41' E 135°11'0 0.0
2014-Oct-21 23:31N 34°41' E 135°11'0 0.0
2014-Oct-21 22:31N 34°41' E 135°11'0 0.0
2014-Oct-21 21:31N 34°41' E 135°11'0 0.0
2014-Oct-21 20:31N 34°41' E 135°11'0 0.0
2014-Oct-21 19:31N 34°41' E 135°11'0 0.0
2014-Oct-21 18:31N 34°41' E 135°11'0 0.0
2014-Oct-21 17:25N 34°41' E 135°11'0 0.0
2014-Oct-21 16:31N 34°41' E 135°11'0 0.0
2014-Oct-21 15:31N 34°41' E 135°11'0 0.0
2014-Oct-21 14:31N 34°41' E 135°11'0 0.0
2014-Oct-21 13:31N 34°41' E 135°11'0 0.0
2014-Oct-21 12:31N 34°41' E 135°11'6 6.1
2014-Oct-21 11:33N 34°36' E 135°07'0 0.4
2014-Oct-21 10:33N 34°37' E 135°07'6 5.6
2014-Oct-21 09:33N 34°41' E 135°11'5 4.8
2014-Oct-21 08:33N 34°37' E 135°07'5 4.6
2014-Oct-21 07:30N 34°41' E 135°11'0 0.0
2014-Oct-21 06:30N 34°41' E 135°11'0 0.0
2014-Oct-21 05:30N 34°41' E 135°11'3 2.8
2014-Oct-21 04:33N 34°38' E 135°11'3 2.6
2014-Oct-21 03:33N 34°37' E 135°14'4 4.2
2014-Oct-21 02:33N 34°41' E 135°11'0 0.0
2014-Oct-21 01:33N 34°41' E 135°11'0 0.0
2014-Oct-21 00:33N 34°41' E 135°11'0 0.0
2014-Oct-20 23:33N 34°41' E 135°11'0 0.0
2014-Oct-20 22:33N 34°41' E 135°11'0 0.0
2014-Oct-20 21:33N 34°41' E 135°11'0 0.0
2014-Oct-20 20:33N 34°41' E 135°11'0 0.0
2014-Oct-20 19:27N 34°41' E 135°11'0 0.0
2014-Oct-20 18:33N 34°41' E 135°11'  

Dump ship's entire track history